KGPT/GPT METAR and TAF weather

Enter ICAO airport designator
Station Type Date Time Source
KGPT METAR 2020/08/14 02:53 UTC NOAA

KGPT 140253Z 00000KT 10SM CLR 25/23 A2995 RMK AO2 SLP141 T02500233 53001


Station Type Date Time Source
KGPT Decoded METAR 2020/08/14 02:53 UTC NOAA

GULFPORT-BILOXI REG AIRPORT , MS, United States (KGPT) 30-25N 089-05W 14M
Aug 13, 2020 - 10:53 PM EDT / 2020.08.14 0253 UTC
Wind: Calm:0
Visibility: 10 mile(s):0
Sky conditions: clear
Temperature: 77.0 F (25.0 C)
Dew Point: 73.9 F (23.3 C)
Relative Humidity: 90%
Pressure (altimeter): 29.95 in. Hg (1014 hPa)
Pressure tendency: 0.00 inches (0.1 hPa) higher than three hours ago
ob: KGPT 140253Z 00000KT 10SM CLR 25/23 A2995 RMK AO2 SLP141 T02500233 53001
cycle: 3

Station Type Date Time Source
KGPT TAF 2020/08/13 18:24 UTC NOAA

TAF KGPT 131722Z 1318/1418 10008KT P6SM VCTS FEW035CB SCT060
FM140000 22006KT P6SM SCT035 BKN250
FM141500 VRB04KT P6SM VCSH SCT030

Example: see airport list